createdAt,value
2023-05-08T00:00:58.667Z,2.00
2023-05-08T00:03:26.486Z,1.85
2023-05-08T00:05:55.518Z,1.63
2023-05-08T00:08:23.225Z,2.00
2023-05-08T00:10:50.367Z,1.70
2023-05-08T00:13:17.717Z,1.77
2023-05-08T00:15:44.801Z,1.50
2023-05-08T00:18:11.880Z,1.65
2023-05-08T00:20:38.932Z,2.72
2023-05-08T00:23:05.970Z,1.88
2023-05-08T00:25:32.962Z,1.30
2023-05-08T00:28:00.622Z,1.40
2023-05-08T00:30:27.975Z,1.30
2023-05-08T00:32:55.120Z,1.45
2023-05-08T00:35:22.247Z,1.63
2023-05-08T00:37:49.258Z,1.60
2023-05-08T00:40:16.283Z,1.40
2023-05-08T00:42:43.320Z,1.65
2023-05-08T00:45:10.935Z,1.35
2023-05-08T00:47:38.455Z,1.33
2023-05-08T00:50:06.080Z,2.70
2023-05-08T00:52:33.902Z,2.13
2023-05-08T00:55:03.167Z,1.52
2023-05-08T00:57:34.612Z,1.63
2023-05-08T01:00:03.877Z,2.35
2023-05-08T01:02:31.823Z,1.92
2023-05-08T01:04:59.093Z,1.52
2023-05-08T01:07:26.264Z,2.08
2023-05-08T01:09:53.298Z,1.95
2023-05-08T01:12:39.093Z,2.58
2023-05-08T01:15:17.902Z,1.25
2023-05-08T01:17:44.907Z,1.73
2023-05-08T01:20:30.835Z,2.75
2023-05-08T01:23:36.021Z,1.65
2023-05-08T01:26:20.700Z,1.40
2023-05-08T01:29:06.599Z,1.83
2023-05-08T01:32:04.827Z,2.92
2023-05-08T01:34:33.872Z,1.42
2023-05-08T01:37:02.060Z,1.50
2023-05-08T01:39:32.080Z,1.52
2023-05-08T01:42:06.167Z,1.33
2023-05-08T01:44:37.980Z,1.92
2023-05-08T01:47:08.444Z,1.95
2023-05-08T01:49:57.582Z,1.77
2023-05-08T01:52:53.095Z,2.85
2023-05-08T01:55:36.404Z,1.60
2023-05-08T01:58:09.771Z,1.20
2023-05-08T02:00:40.872Z,2.53
2023-05-08T02:03:09.478Z,1.75
2023-05-08T02:05:40.553Z,1.77
2023-05-08T02:08:11.429Z,2.00
2023-05-08T02:10:39.249Z,1.83
2023-05-08T02:13:07.737Z,1.30
2023-05-08T02:15:36.797Z,1.65
2023-05-08T02:18:08.900Z,1.80
2023-05-08T02:20:37.635Z,1.65
2023-05-08T02:23:05.567Z,1.80
2023-05-08T02:25:33.575Z,1.73
2023-05-08T02:28:01.435Z,2.05
2023-05-08T02:30:29.705Z,2.20
2023-05-08T02:33:00.613Z,1.70
2023-05-08T02:35:31.102Z,1.60
2023-05-08T02:37:59.373Z,1.77
2023-05-08T02:40:29.667Z,1.95
2023-05-08T02:42:57.743Z,1.38
2023-05-08T02:45:28.981Z,1.88
2023-05-08T02:48:14.159Z,1.60
2023-05-08T02:51:04.949Z,2.15
2023-05-08T02:53:59.763Z,1.95
2023-05-08T02:56:57.269Z,2.13
2023-05-08T02:59:31.612Z,3.00
2023-05-08T03:02:26.422Z,1.95
2023-05-08T03:04:59.574Z,2.25
2023-05-08T03:07:28.778Z,1.88
2023-05-08T03:10:00.431Z,1.90
2023-05-08T03:12:31.073Z,1.83
2023-05-08T03:15:06.756Z,2.47
2023-05-08T03:17:39.510Z,2.22
2023-05-08T03:20:10.303Z,2.17
2023-05-08T03:22:38.908Z,1.95
2023-05-08T03:25:09.267Z,1.77
2023-05-08T03:27:38.444Z,2.08
2023-05-08T03:30:07.480Z,1.70
2023-05-08T03:32:38.504Z,1.98
2023-05-08T03:35:06.682Z,2.15
2023-05-08T03:37:33.753Z,2.75
2023-05-08T03:40:01.078Z,2.53
2023-05-08T03:42:28.498Z,3.22
2023-05-08T03:44:55.751Z,3.33
2023-05-08T03:47:26.167Z,3.28
2023-05-08T03:49:53.425Z,2.83
2023-05-08T03:52:20.773Z,2.80
2023-05-08T03:54:47.897Z,3.42
2023-05-08T03:57:14.965Z,3.67
2023-05-08T03:59:49.321Z,2.95
2023-05-08T04:02:34.574Z,2.80
2023-05-08T04:05:11.343Z,2.45
2023-05-08T04:07:47.545Z,2.72
2023-05-08T04:10:35.270Z,3.08
2023-05-08T04:13:16.281Z,3.22
2023-05-08T04:15:52.523Z,3.15
2023-05-08T04:18:29.485Z,2.22
2023-05-08T04:21:00.136Z,2.95
2023-05-08T04:23:29.973Z,2.75
2023-05-08T04:26:00.631Z,2.75
2023-05-08T04:28:28.393Z,2.55
2023-05-08T04:30:56.816Z,3.75
2023-05-08T04:33:24.390Z,3.05
2023-05-08T04:35:52.407Z,3.55
2023-05-08T04:38:19.549Z,2.60
2023-05-08T04:40:46.569Z,2.05
2023-05-08T04:43:14.000Z,1.90
2023-05-08T04:45:41.141Z,2.40
2023-05-08T04:48:08.198Z,2.60
2023-05-08T04:50:35.778Z,2.47
2023-05-08T04:53:02.893Z,2.08
2023-05-08T04:55:30.315Z,2.55
2023-05-08T04:57:57.651Z,1.75
2023-05-08T05:00:24.627Z,1.83
2023-05-08T05:02:52.396Z,1.90
2023-05-08T05:05:19.631Z,2.53
2023-05-08T05:07:46.765Z,2.45
2023-05-08T05:10:14.060Z,2.95
2023-05-08T05:12:41.182Z,3.40
2023-05-08T05:15:08.857Z,2.95
2023-05-08T05:17:37.877Z,3.00
2023-05-08T05:20:06.227Z,2.65
2023-05-08T05:22:33.440Z,2.05
2023-05-08T05:25:00.713Z,2.72
2023-05-08T05:27:28.715Z,3.72
2023-05-08T05:29:56.056Z,2.67
2023-05-08T05:32:23.132Z,2.58
2023-05-08T05:34:51.072Z,3.38
2023-05-08T05:37:18.080Z,2.10
2023-05-08T05:39:45.122Z,2.10
2023-05-08T05:42:12.556Z,2.78
2023-05-08T05:44:39.534Z,3.33
2023-05-08T05:47:10.106Z,2.22
2023-05-08T05:49:37.763Z,2.42
2023-05-08T05:52:04.948Z,2.15
2023-05-08T05:54:32.424Z,3.42
2023-05-08T05:56:59.496Z,2.58
2023-05-08T05:59:26.968Z,2.13
2023-05-08T06:01:54.136Z,2.10
2023-05-08T06:04:21.407Z,2.17
2023-05-08T06:06:48.483Z,3.55
2023-05-08T06:09:16.000Z,2.53
2023-05-08T06:11:43.953Z,2.55
2023-05-08T06:14:11.202Z,1.90
2023-05-08T06:16:39.181Z,2.13
2023-05-08T06:19:06.348Z,2.20
2023-05-08T06:21:34.564Z,1.65
2023-05-08T06:24:01.657Z,1.80
2023-05-08T06:26:28.756Z,2.08
2023-05-08T06:28:56.817Z,1.65
2023-05-08T06:31:23.896Z,1.45
2023-05-08T06:33:51.009Z,2.22
2023-05-08T06:36:18.036Z,1.90
2023-05-08T06:38:45.024Z,2.05
2023-05-08T06:41:13.385Z,1.95
2023-05-08T06:43:42.126Z,1.70
2023-05-08T06:46:09.361Z,2.08
2023-05-08T06:48:36.461Z,1.35
2023-05-08T06:51:03.750Z,1.80
2023-05-08T06:53:31.217Z,1.67
2023-05-08T06:55:58.922Z,2.03
2023-05-08T06:58:26.053Z,1.08
2023-05-08T07:00:53.061Z,1.65
2023-05-08T07:03:20.128Z,1.75
2023-05-08T07:05:47.108Z,1.88
2023-05-08T07:08:14.108Z,1.10
2023-05-08T07:10:41.183Z,1.30
2023-05-08T07:13:08.229Z,1.77
2023-05-08T07:15:35.326Z,1.98
2023-05-08T07:18:02.423Z,1.20
2023-05-08T07:20:29.563Z,1.50
2023-05-08T07:22:56.654Z,1.45
2023-05-08T07:25:23.859Z,1.48
2023-05-08T07:27:50.863Z,1.40
2023-05-08T07:30:18.096Z,1.30
2023-05-08T07:32:45.292Z,2.05
2023-05-08T07:35:12.977Z,1.35
2023-05-08T07:37:40.456Z,1.42
2023-05-08T07:40:08.061Z,1.55
2023-05-08T07:42:45.109Z,1.38
2023-05-08T07:45:13.935Z,1.85
2023-05-08T07:47:56.129Z,1.33
2023-05-08T07:50:24.697Z,1.77
2023-05-08T07:52:52.119Z,2.28
2023-05-08T07:55:19.947Z,1.63
2023-05-08T07:57:47.019Z,2.67
2023-05-08T08:00:15.799Z,2.72
2023-05-08T08:02:45.172Z,2.17
2023-05-08T08:05:12.876Z,1.65
2023-05-08T08:07:40.173Z,2.55
2023-05-08T08:10:08.015Z,2.60
2023-05-08T08:12:35.312Z,2.00
2023-05-08T08:15:02.801Z,2.25
2023-05-08T08:17:29.791Z,2.60
2023-05-08T08:19:57.387Z,1.90
2023-05-08T08:22:25.584Z,1.60
2023-05-08T08:24:55.253Z,1.95
2023-05-08T08:27:22.940Z,1.40
2023-05-08T08:29:52.501Z,1.75
2023-05-08T08:32:26.012Z,2.33
2023-05-08T08:34:53.084Z,2.25
2023-05-08T08:37:20.173Z,2.40
2023-05-08T08:39:48.418Z,2.72
2023-05-08T08:42:15.674Z,2.13
2023-05-08T08:44:43.042Z,2.00
2023-05-08T08:47:13.015Z,1.80
2023-05-08T08:49:51.183Z,1.85
2023-05-08T08:52:36.065Z,2.67
2023-05-08T08:55:08.163Z,1.60
2023-05-08T08:57:39.397Z,1.95
2023-05-08T09:00:09.665Z,1.80
2023-05-08T09:02:37.018Z,1.58
2023-05-08T09:05:04.356Z,2.15
2023-05-08T09:07:32.156Z,1.70
2023-05-08T09:10:00.584Z,1.85
2023-05-08T09:12:27.768Z,1.50
2023-05-08T09:14:54.839Z,2.03
2023-05-08T09:17:22.170Z,2.00
2023-05-08T09:19:49.974Z,2.33
2023-05-08T09:22:18.065Z,2.55
2023-05-08T09:24:59.282Z,1.60
2023-05-08T09:27:28.518Z,2.38
2023-05-08T09:30:12.562Z,2.10
2023-05-08T09:32:41.924Z,2.33
2023-05-08T09:35:10.263Z,1.80
2023-05-08T09:37:43.256Z,1.50
2023-05-08T09:40:21.621Z,2.47
2023-05-08T09:42:51.073Z,1.98
2023-05-08T09:45:32.393Z,1.83
2023-05-08T09:47:59.649Z,2.45
2023-05-08T09:50:27.945Z,2.05
2023-05-08T09:52:55.511Z,1.98
2023-05-08T09:55:22.581Z,2.55
2023-05-08T09:58:07.896Z,2.72
2023-05-08T10:00:40.035Z,2.17
2023-05-08T10:03:07.056Z,2.70
2023-05-08T10:05:36.502Z,2.53
2023-05-08T10:08:23.949Z,3.30
2023-05-08T10:10:51.327Z,2.17
2023-05-08T10:13:18.499Z,1.48
2023-05-08T10:15:45.920Z,2.13
2023-05-08T10:18:14.650Z,2.85
2023-05-08T10:20:45.777Z,2.28
2023-05-08T10:23:17.631Z,3.05
2023-05-08T10:25:52.851Z,3.00
2023-05-08T10:28:27.853Z,2.92
2023-05-08T10:30:59.698Z,1.80
2023-05-08T10:33:33.522Z,1.90
2023-05-08T10:36:01.596Z,2.75
2023-05-08T10:38:30.728Z,2.20
2023-05-08T10:41:01.492Z,2.95
2023-05-08T10:43:33.617Z,2.78
2023-05-08T10:46:10.577Z,2.05
2023-05-08T10:49:08.808Z,2.20
2023-05-08T10:51:44.301Z,1.52
2023-05-08T10:54:21.826Z,2.38
2023-05-08T10:56:49.253Z,1.65
2023-05-08T10:59:20.301Z,1.38
2023-05-08T11:01:50.717Z,2.22
2023-05-08T11:04:22.857Z,1.80
2023-05-08T11:06:53.278Z,1.63
2023-05-08T11:09:22.006Z,1.33
2023-05-08T11:12:08.914Z,1.35
2023-05-08T11:14:39.519Z,2.28
2023-05-08T11:17:07.551Z,1.58
2023-05-08T11:19:35.036Z,1.98
2023-05-08T11:22:32.830Z,1.70
2023-05-08T11:25:10.853Z,1.63
2023-05-08T11:27:50.185Z,1.45
2023-05-08T11:30:24.461Z,1.42
2023-05-08T11:33:03.950Z,2.03
2023-05-08T11:35:54.377Z,1.65
2023-05-08T11:38:36.277Z,1.55
2023-05-08T11:41:06.240Z,1.75
2023-05-08T11:43:33.431Z,1.70
2023-05-08T11:46:04.199Z,1.35
2023-05-08T11:48:32.690Z,1.83
2023-05-08T11:51:00.295Z,1.33
2023-05-08T11:53:27.961Z,1.80
2023-05-08T11:55:55.439Z,1.48
2023-05-08T11:58:22.612Z,1.35
2023-05-08T12:00:50.375Z,1.15
2023-05-08T12:03:20.150Z,1.40
2023-05-08T12:05:49.132Z,1.20
2023-05-08T12:08:17.637Z,1.13
2023-05-08T12:10:51.721Z,1.90
2023-05-08T12:13:29.290Z,1.30
2023-05-08T12:16:00.830Z,1.50
2023-05-08T12:18:30.584Z,1.40
2023-05-08T12:21:00.897Z,1.58
2023-05-08T12:23:31.104Z,1.55
2023-05-08T12:26:02.216Z,1.58
2023-05-08T12:28:30.614Z,1.40
2023-05-08T12:30:58.298Z,1.63
2023-05-08T12:33:26.091Z,1.27
2023-05-08T12:35:53.188Z,1.88
2023-05-08T12:38:25.366Z,1.90
2023-05-08T12:40:58.906Z,1.30
2023-05-08T12:43:34.568Z,2.17
2023-05-08T12:46:02.890Z,2.40
2023-05-08T12:48:30.682Z,2.00
2023-05-08T12:51:04.787Z,1.50
2023-05-08T12:53:33.403Z,1.30
2023-05-08T12:56:04.619Z,1.27
2023-05-08T12:58:34.015Z,1.67
2023-05-08T13:01:11.988Z,1.30
2023-05-08T13:03:40.516Z,2.28
2023-05-08T13:06:19.160Z,1.20
2023-05-08T13:08:46.280Z,1.70
2023-05-08T13:11:13.290Z,1.70
2023-05-08T13:13:40.320Z,2.05
2023-05-08T13:16:08.163Z,1.90
2023-05-08T13:18:37.812Z,2.47
2023-05-08T13:21:05.125Z,3.05
2023-05-08T13:23:32.180Z,2.63
2023-05-08T13:25:59.192Z,1.90
2023-05-08T13:28:26.203Z,3.65
2023-05-08T13:30:53.319Z,2.72
2023-05-08T13:33:20.345Z,2.20
2023-05-08T13:35:47.362Z,3.08
2023-05-08T13:38:14.414Z,2.28
2023-05-08T13:40:41.447Z,1.90
2023-05-08T13:43:08.461Z,2.63
2023-05-08T13:45:35.596Z,2.95
2023-05-08T13:48:02.732Z,2.60
2023-05-08T13:50:29.849Z,3.10
2023-05-08T13:52:56.873Z,3.65
2023-05-08T13:55:23.993Z,2.53
2023-05-08T13:57:51.291Z,2.40
2023-05-08T14:00:18.722Z,2.28
2023-05-08T14:02:46.057Z,2.17
2023-05-08T14:05:13.583Z,2.97
2023-05-08T14:07:40.890Z,2.15
2023-05-08T14:10:08.681Z,1.70
2023-05-08T14:12:36.499Z,2.78
2023-05-08T14:15:07.512Z,1.50
2023-05-08T14:17:34.641Z,1.60
2023-05-08T14:20:01.677Z,2.28
2023-05-08T14:22:28.676Z,1.83
2023-05-08T14:24:55.950Z,3.08
2023-05-08T14:27:22.990Z,1.83
2023-05-08T14:29:50.104Z,2.58
2023-05-08T14:32:17.204Z,3.08
2023-05-08T14:34:44.659Z,2.15
2023-05-08T14:37:13.004Z,1.83
2023-05-08T14:39:40.099Z,1.88
2023-05-08T14:42:22.256Z,1.52
2023-05-08T14:44:50.436Z,1.50
2023-05-08T14:47:17.587Z,1.98
2023-05-08T14:49:44.705Z,2.65
2023-05-08T14:52:11.857Z,2.72
2023-05-08T14:54:39.075Z,1.48
2023-05-08T14:57:06.284Z,2.22
2023-05-08T14:59:33.377Z,2.63
2023-05-08T15:02:00.865Z,2.65
2023-05-08T15:04:28.156Z,2.13
2023-05-08T15:06:55.270Z,2.10
2023-05-08T15:09:22.306Z,2.53
2023-05-08T15:11:49.318Z,2.00
2023-05-08T15:14:16.383Z,2.80
2023-05-08T15:16:43.431Z,1.90
2023-05-08T15:19:10.511Z,1.73
2023-05-08T15:21:37.585Z,2.00
2023-05-08T15:24:04.735Z,3.08
2023-05-08T15:26:31.868Z,2.55
2023-05-08T15:28:58.969Z,1.70
2023-05-08T15:31:26.027Z,2.05
2023-05-08T15:33:53.028Z,1.95
2023-05-08T15:36:20.076Z,1.65
2023-05-08T15:38:49.149Z,3.55
2023-05-08T15:41:16.219Z,2.03
2023-05-08T15:43:45.498Z,3.55
2023-05-08T15:46:12.658Z,1.83
2023-05-08T15:48:39.910Z,1.55
2023-05-08T15:51:06.942Z,2.33
2023-05-08T15:53:34.625Z,2.20
2023-05-08T15:56:01.650Z,1.20
2023-05-08T15:58:28.744Z,3.47
2023-05-08T16:00:57.016Z,2.05
2023-05-08T16:03:24.615Z,1.67
2023-05-08T16:05:51.843Z,1.60
2023-05-08T16:08:18.865Z,2.25
2023-05-08T16:10:45.846Z,2.45
2023-05-08T16:13:12.924Z,2.30
2023-05-08T16:15:40.406Z,1.90
2023-05-08T16:18:08.127Z,2.55
2023-05-08T16:20:36.259Z,2.50
2023-05-08T16:23:03.679Z,3.15
2023-05-08T16:25:30.823Z,1.83
2023-05-08T16:27:57.932Z,2.45
2023-05-08T16:30:25.029Z,1.58
2023-05-08T16:32:52.177Z,1.98
2023-05-08T16:35:19.754Z,2.00
2023-05-08T16:37:47.028Z,2.50
2023-05-08T16:40:14.160Z,2.38
2023-05-08T16:42:41.304Z,2.42
2023-05-08T16:45:09.027Z,2.17
2023-05-08T16:47:36.430Z,2.50
2023-05-08T16:50:05.335Z,1.92
2023-05-08T16:52:33.060Z,2.28
2023-05-08T16:55:00.561Z,1.95
2023-05-08T16:57:27.828Z,1.80
2023-05-08T16:59:55.180Z,2.50
2023-05-08T17:02:22.394Z,2.83
2023-05-08T17:04:49.780Z,2.28
2023-05-08T17:07:17.892Z,1.95
2023-05-08T17:09:45.548Z,1.77
2023-05-08T17:12:12.717Z,2.00
2023-05-08T17:14:40.666Z,2.60
2023-05-08T17:17:08.205Z,1.80
2023-05-08T17:19:35.453Z,1.80
2023-05-08T17:22:02.746Z,1.95
2023-05-08T17:24:30.580Z,1.90
2023-05-08T17:26:57.787Z,2.20
2023-05-08T17:29:24.885Z,2.35
2023-05-08T17:31:52.045Z,1.65
2023-05-08T17:34:19.195Z,1.65
2023-05-08T17:36:46.341Z,1.58
2023-05-08T17:39:13.489Z,1.85
2023-05-08T17:41:40.579Z,1.80
2023-05-08T17:44:07.637Z,1.77
2023-05-08T17:46:34.677Z,1.30
2023-05-08T17:49:01.885Z,2.03
2023-05-08T17:51:29.033Z,1.80
2023-05-08T17:53:59.065Z,1.80
2023-05-08T17:56:26.303Z,1.70
2023-05-08T17:58:53.665Z,1.73
2023-05-08T18:01:20.881Z,1.33
2023-05-08T18:03:48.649Z,1.40
2023-05-08T18:06:16.839Z,1.65
2023-05-08T18:08:44.590Z,2.28
2023-05-08T18:11:22.471Z,2.00
2023-05-08T18:13:50.408Z,1.70
2023-05-08T18:16:19.813Z,2.00
2023-05-08T18:18:47.561Z,1.13
2023-05-08T18:21:14.548Z,1.20
2023-05-08T18:23:41.614Z,1.50
2023-05-08T18:26:13.141Z,0.90
2023-05-08T18:28:40.247Z,1.10
2023-05-08T18:31:07.300Z,1.20
2023-05-08T18:33:34.349Z,1.67
2023-05-08T18:36:01.399Z,1.65
2023-05-08T18:38:28.390Z,1.90
2023-05-08T18:40:55.433Z,1.70
2023-05-08T18:43:22.405Z,2.83
2023-05-08T18:45:49.392Z,1.40
2023-05-08T18:48:16.475Z,1.55
2023-05-08T18:50:43.439Z,1.95
2023-05-08T18:53:10.500Z,1.98
2023-05-08T18:55:37.490Z,1.55
2023-05-08T18:58:06.123Z,2.03
2023-05-08T19:00:33.493Z,1.75
2023-05-08T19:03:00.709Z,1.63
2023-05-08T19:05:27.889Z,1.88
2023-05-08T19:07:55.060Z,1.60
2023-05-08T19:10:22.103Z,1.35
2023-05-08T19:12:50.658Z,1.95
2023-05-08T19:15:17.902Z,2.00
2023-05-08T19:17:45.027Z,2.67
2023-05-08T19:20:13.098Z,1.70
2023-05-08T19:22:40.563Z,1.67
2023-05-08T19:25:08.148Z,1.30
2023-05-08T19:27:35.186Z,1.27
2023-05-08T19:30:02.228Z,1.50
2023-05-08T19:32:29.655Z,1.60
2023-05-08T19:34:57.733Z,1.67
2023-05-08T19:37:25.088Z,1.58
2023-05-08T19:39:52.866Z,1.60
2023-05-08T19:42:19.879Z,1.77
2023-05-08T19:44:47.048Z,1.85
2023-05-08T19:47:14.605Z,1.73
2023-05-08T19:49:41.608Z,5.95
2023-05-08T19:52:08.806Z,3.80
2023-05-08T19:54:38.319Z,3.28
2023-05-08T19:57:05.492Z,2.70
2023-05-08T19:59:33.518Z,1.90
2023-05-08T20:02:02.353Z,1.77
2023-05-08T20:04:29.602Z,1.60
2023-05-08T20:06:56.694Z,1.98
2023-05-08T20:09:23.757Z,1.80
2023-05-08T20:11:50.901Z,1.73
2023-05-08T20:14:17.913Z,1.60
2023-05-08T20:16:45.141Z,1.30
2023-05-08T20:19:12.206Z,1.20
2023-05-08T20:21:39.292Z,2.13
2023-05-08T20:24:06.593Z,1.63
2023-05-08T20:26:33.812Z,2.25
2023-05-08T20:29:01.162Z,1.52
2023-05-08T20:31:30.763Z,2.08
2023-05-08T20:33:59.617Z,1.45
2023-05-08T20:36:27.154Z,1.63
2023-05-08T20:38:54.253Z,1.70
2023-05-08T20:41:21.271Z,1.85
2023-05-08T20:43:48.298Z,1.42
2023-05-08T20:46:15.398Z,1.40
2023-05-08T20:48:42.672Z,1.65
2023-05-08T20:51:09.693Z,1.88
2023-05-08T20:53:36.701Z,1.30
2023-05-08T20:56:04.687Z,1.60
2023-05-08T20:58:32.269Z,1.63
2023-05-08T21:00:59.697Z,1.58
2023-05-08T21:03:26.842Z,1.88
2023-05-08T21:05:54.971Z,1.83
2023-05-08T21:08:23.565Z,1.70
2023-05-08T21:10:52.187Z,0.95
2023-05-08T21:13:19.622Z,1.63
2023-05-08T21:15:50.667Z,1.20
2023-05-08T21:18:18.097Z,1.45
2023-05-08T21:20:49.832Z,1.42
2023-05-08T21:23:20.573Z,1.40
2023-05-08T21:25:48.625Z,1.58
2023-05-08T21:28:16.465Z,1.60
2023-05-08T21:30:43.924Z,1.52
2023-05-08T21:33:13.749Z,1.20
2023-05-08T21:35:41.719Z,1.30
2023-05-08T21:38:12.070Z,1.40
2023-05-08T21:40:39.662Z,1.30
2023-05-08T21:43:06.753Z,1.70
2023-05-08T21:45:34.123Z,1.40
2023-05-08T21:48:01.376Z,1.60
2023-05-08T21:50:28.565Z,1.15
2023-05-08T21:52:56.786Z,1.83
2023-05-08T21:55:24.278Z,1.48
2023-05-08T21:57:51.438Z,1.20
2023-05-08T22:00:19.113Z,1.88
2023-05-08T22:02:48.923Z,1.42
2023-05-08T22:05:16.199Z,1.83
2023-05-08T22:07:43.457Z,1.33
2023-05-08T22:10:11.714Z,1.45
2023-05-08T22:12:38.856Z,1.50
2023-05-08T22:15:14.880Z,1.40
2023-05-08T22:17:50.657Z,1.08
2023-05-08T22:20:18.300Z,1.23
2023-05-08T22:22:45.843Z,0.77
2023-05-08T22:25:13.187Z,0.80
2023-05-08T22:27:40.863Z,0.80
2023-05-08T22:30:08.459Z,0.98
2023-05-08T22:32:36.452Z,1.58
2023-05-08T22:35:03.605Z,1.17
2023-05-08T22:37:30.601Z,0.93
2023-05-08T22:39:57.640Z,1.42
2023-05-08T22:42:25.198Z,0.77
2023-05-08T22:44:52.319Z,0.80
2023-05-08T22:47:19.498Z,1.00
2023-05-08T22:49:48.110Z,0.63
2023-05-08T22:52:15.151Z,0.60
2023-05-08T22:54:42.117Z,0.70
2023-05-08T22:57:09.179Z,0.73
2023-05-08T22:59:36.656Z,0.70
2023-05-08T23:02:03.777Z,0.68
2023-05-08T23:04:30.879Z,0.50
2023-05-08T23:06:57.920Z,0.55
2023-05-08T23:09:26.033Z,0.50
2023-05-08T23:11:53.055Z,0.50
2023-05-08T23:14:20.053Z,0.60
2023-05-08T23:16:47.175Z,0.80
2023-05-08T23:19:14.153Z,0.57
2023-05-08T23:21:41.438Z,0.50
2023-05-08T23:24:08.626Z,0.50
2023-05-08T23:26:35.715Z,0.40
2023-05-08T23:29:02.704Z,0.50
2023-05-08T23:31:29.807Z,0.60
2023-05-08T23:33:56.818Z,0.55
2023-05-08T23:36:23.864Z,0.40
2023-05-08T23:38:50.994Z,0.45
2023-05-08T23:41:19.223Z,0.40
2023-05-08T23:43:46.186Z,0.40
2023-05-08T23:46:13.906Z,0.43
2023-05-08T23:48:41.060Z,0.50
2023-05-08T23:51:08.082Z,0.52
2023-05-08T23:53:35.091Z,0.40
2023-05-08T23:56:02.191Z,0.30
2023-05-08T23:58:29.147Z,0.50
